Time;durP1;ratioP1;P1;durP2;ratioP2;P2;SDS_P1;SDS_P2;PMS_P1;PMS_P2;Temp;Humidity;BMP_temperature;BMP_pressure;BME280_temperature;BME280_humidity;BME280_pressure;Samples;Min_cycle;Max_cycle;Signal;HPM_P1;HPM_P2
2024/01/22 00:02:13;;;;;;;21.42;4.47;;;;;;;8.27;88.92;97964.31;5038058;28;20053;-51
2024/01/22 00:04:46;;;;;;;10.65;2.28;;;;;;;8.20;89.04;97983.59;5047010;28;20049;-51
2024/01/22 00:07:13;;;;;;;15.73;3.45;;;;;;;8.12;88.40;97982.03;5046173;28;20045;-47
2024/01/22 00:09:41;;;;;;;9.32;1.80;;;;;;;8.08;88.35;97980.44;5028841;28;20052;-52
2024/01/22 00:12:09;;;;;;;10.80;3.13;;;;;;;8.04;88.36;97996.22;5046723;28;20476;-49
2024/01/22 00:14:37;;;;;;;14.73;2.33;;;;;;;7.98;88.25;97987.56;5046777;28;20059;-46
2024/01/22 00:17:04;;;;;;;11.90;3.92;;;;;;;7.95;88.36;97994.66;5045956;28;20063;-49
2024/01/22 00:19:32;;;;;;;7.63;2.88;;;;;;;7.91;88.21;98009.59;5046789;28;20056;-52
2024/01/22 00:21:59;;;;;;;10.30;2.47;;;;;;;7.87;88.33;97993.06;5046510;28;20049;-50
2024/01/22 00:24:26;;;;;;;16.75;3.70;;;;;;;7.85;88.56;98003.69;5046226;28;20045;-49
2024/01/22 00:26:54;;;;;;;10.32;2.38;;;;;;;7.81;88.70;98007.66;5029312;28;20050;-48
2024/01/22 00:29:21;;;;;;;19.00;3.28;;;;;;;7.76;88.83;98028.06;5042901;28;20946;-50
2024/01/22 00:31:48;;;;;;;16.08;3.35;;;;;;;7.74;88.82;98013.94;5042766;28;20052;-52
2024/01/22 00:34:16;;;;;;;11.52;3.35;;;;;;;7.71;88.88;98031.22;5045179;28;20056;-48
2024/01/22 00:36:44;;;;;;;15.60;3.45;;;;;;;7.69;88.91;98044.59;5046247;28;20041;-51
2024/01/22 00:39:12;;;;;;;14.57;3.80;;;;;;;7.67;88.91;98035.16;5044446;28;20041;-54
2024/01/22 00:41:39;;;;;;;14.82;3.92;;;;;;;7.65;89.01;98032.03;5045356;28;20048;-48
2024/01/22 00:44:06;;;;;;;13.98;2.78;;;;;;;7.61;89.31;98034.75;5044329;28;20511;-51
2024/01/22 00:46:34;;;;;;;11.93;4.97;;;;;;;7.59;89.41;98037.13;5045092;28;20037;-51
2024/01/22 00:49:03;;;;;;;15.65;3.92;;;;;;;7.58;89.53;98054.81;5027242;28;20384;-47
2024/01/22 00:51:30;;;;;;;15.48;3.58;;;;;;;7.55;89.80;98069.34;5046037;28;20052;-50
2024/01/22 00:53:58;;;;;;;14.70;5.93;;;;;;;7.56;90.13;98068.19;5044536;28;20044;-51
2024/01/22 00:56:25;;;;;;;16.70;3.55;;;;;;;7.55;90.37;98061.09;5044331;28;20045;-48
2024/01/22 00:58:52;;;;;;;10.90;2.58;;;;;;;7.50;90.86;98069.75;5045405;28;20049;-49
2024/01/22 01:01:20;;;;;;;23.02;4.18;;;;;;;7.46;90.97;98090.97;5045068;28;20395;-51
2024/01/22 01:03:48;;;;;;;18.10;3.17;;;;;;;7.44;91.25;98093.31;5043248;28;20049;-53
2024/01/22 01:06:17;;;;;;;21.55;4.13;;;;;;;7.42;91.56;98106.69;5043706;28;20040;-50
2024/01/22 01:08:44;;;;;;;21.63;4.28;;;;;;;7.40;91.64;98100.78;5045008;28;20053;-49
2024/01/22 01:11:12;;;;;;;15.95;3.60;;;;;;;7.40;91.51;98125.56;5045237;28;20511;-51
2024/01/22 01:13:39;;;;;;;23.67;5.55;;;;;;;7.39;91.54;98125.94;5039826;28;20064;-49
2024/01/22 01:16:07;;;;;;;18.55;5.07;;;;;;;7.36;91.76;98138.50;5038402;28;20045;-49
2024/01/22 01:18:34;;;;;;;20.63;3.40;;;;;;;7.35;91.81;98139.69;5045610;28;20068;-46
2024/01/22 01:21:02;;;;;;;22.88;4.90;;;;;;;7.35;91.51;98154.25;5027335;28;20049;-51
2024/01/22 01:23:29;;;;;;;17.90;3.80;;;;;;;7.35;91.67;98158.94;5046065;28;20034;-50
2024/01/22 01:25:57;;;;;;;24.05;3.70;;;;;;;7.33;91.56;98161.31;5045653;28;20426;-49
2024/01/22 01:28:24;;;;;;;13.32;3.40;;;;;;;7.33;91.35;98158.56;5028155;28;20068;-51
2024/01/22 01:30:51;;;;;;;21.67;4.90;;;;;;;7.34;91.38;98174.66;5044730;28;20124;-54
2024/01/22 01:33:19;;;;;;;42.28;4.53;;;;;;;7.33;91.32;98192.34;5035817;28;20049;-48
2024/01/22 01:35:49;;;;;;;20.50;3.55;;;;;;;7.32;91.23;98173.47;5027396;28;20049;-53
2024/01/22 01:38:16;;;;;;;11.25;2.63;;;;;;;7.32;91.26;98178.97;5043270;28;20049;-47
2024/01/22 01:40:43;;;;;;;18.35;3.50;;;;;;;7.31;91.24;98211.22;5045064;28;20067;-49
2024/01/22 01:43:11;;;;;;;29.30;4.03;;;;;;;7.30;91.27;98201.41;5041404;28;20061;-51
2024/01/22 01:45:38;;;;;;;10.50;2.95;;;;;;;7.27;90.93;98235.19;5044299;28;20052;-49
2024/01/22 01:48:06;;;;;;;14.32;3.85;;;;;;;7.27;90.96;98253.66;5044734;28;20406;-46
2024/01/22 01:50:34;;;;;;;20.77;2.67;;;;;;;7.24;90.68;98232.41;5044779;28;20049;-51
2024/01/22 01:53:03;;;;;;;12.85;2.70;;;;;;;7.24;90.46;98235.97;5045271;28;20049;-52
2024/01/22 01:55:31;;;;;;;14.73;2.85;;;;;;;7.24;90.21;98246.97;5045892;28;20518;-47
2024/01/22 01:58:01;;;;;;;11.88;2.17;;;;;;;7.20;89.53;98257.13;5045871;28;20052;-51
2024/01/22 02:00:33;;;;;;;10.85;1.92;;;;;;;7.20;89.35;98268.16;5045330;28;20045;-48
2024/01/22 02:03:01;;;;;;;11.57;2.63;;;;;;;7.19;89.46;98280.34;5045083;28;20060;-53
2024/01/22 02:05:29;;;;;;;9.98;2.15;;;;;;;7.17;89.28;98298.41;5045879;28;20645;-49
2024/01/22 02:07:56;;;;;;;13.77;1.77;;;;;;;7.14;89.14;98277.16;5047733;28;20041;-47
2024/01/22 02:10:23;;;;;;;14.52;2.88;;;;;;;7.11;89.30;98322.72;5049412;28;20036;-49
2024/01/22 02:12:51;;;;;;;10.48;1.83;;;;;;;7.10;89.20;98334.09;5035936;28;20052;-52
2024/01/22 02:15:18;;;;;;;12.85;2.60;;;;;;;7.06;89.24;98331.34;5048787;28;20049;-51
2024/01/22 02:17:46;;;;;;;16.08;2.50;;;;;;;7.03;89.27;98337.59;5047232;28;20057;-51
2024/01/22 02:20:13;;;;;;;9.77;1.95;;;;;;;7.03;89.35;98361.56;5037549;28;20535;-46
2024/01/22 02:22:41;;;;;;;12.85;2.95;;;;;;;7.01;89.38;98361.16;5048782;28;20048;-52
2024/01/22 02:25:08;;;;;;;8.30;1.85;;;;;;;6.99;89.54;98374.50;5048962;28;20447;-50
2024/01/22 02:27:36;;;;;;;11.13;2.67;;;;;;;6.97;89.63;98376.81;5048792;28;20068;-53
2024/01/22 02:30:03;;;;;;;6.78;1.95;;;;;;;6.95;89.66;98373.66;5048787;28;20111;-49
2024/01/22 02:32:31;;;;;;;11.45;2.15;;;;;;;6.94;89.78;98385.81;5029138;28;20060;-52
2024/01/22 02:34:58;;;;;;;15.45;4.32;;;;;;;6.93;89.58;98376.81;5048306;28;20534;-50
2024/01/22 02:37:25;;;;;;;19.98;5.78;;;;;;;6.92;89.75;98386.22;5048468;28;20057;-48
2024/01/22 02:39:53;;;;;;;8.93;2.47;;;;;;;6.92;89.75;98379.91;5049135;28;20064;-52
2024/01/22 02:42:20;;;;;;;23.70;2.45;;;;;;;6.91;89.89;98400.38;5036076;28;20052;-49
2024/01/22 02:44:47;;;;;;;21.52;3.88;;;;;;;6.89;90.19;98402.69;5048622;28;20051;-51
2024/01/22 02:47:15;;;;;;;20.10;3.08;;;;;;;6.88;90.05;98412.91;5048856;28;20499;-48
2024/01/22 02:49:42;;;;;;;20.02;2.80;;;;;;;6.88;90.50;98412.13;5030668;28;20411;-50
2024/01/22 02:52:09;;;;;;;13.65;3.03;;;;;;;6.88;90.51;98436.88;5048600;28;20045;-53
2024/01/22 02:54:37;;;;;;;18.35;2.80;;;;;;;6.89;90.37;98436.47;5046668;28;20831;-49
2024/01/22 02:57:04;;;;;;;15.82;3.00;;;;;;;6.89;90.47;98441.19;5048385;28;20048;-47
2024/01/22 02:59:36;;;;;;;10.20;2.97;;;;;;;6.90;90.54;98451.03;5048487;28;20404;-51
2024/01/22 03:02:04;;;;;;;18.50;3.85;;;;;;;6.90;90.49;98451.03;5125332;22;20071;-49
2024/01/22 03:04:31;;;;;;;20.98;2.90;;;;;;;6.89;90.44;98479.69;5047848;28;20059;-53
2024/01/22 03:06:59;;;;;;;21.88;3.67;;;;;;;6.89;90.50;98476.94;5034893;28;20049;-49
2024/01/22 03:09:26;;;;;;;22.60;3.75;;;;;;;6.88;90.51;98489.13;5030452;28;20045;-51
2024/01/22 03:11:53;;;;;;;22.83;4.00;;;;;;;6.88;90.79;98508.38;5039298;28;20060;-51
2024/01/22 03:14:21;;;;;;;21.05;5.03;;;;;;;6.87;90.58;98520.53;5046005;28;20437;-48
2024/01/22 03:16:48;;;;;;;13.38;2.97;;;;;;;6.85;90.70;98511.88;5046649;28;20049;-48
2024/01/22 03:19:16;;;;;;;17.25;3.10;;;;;;;6.85;90.67;98525.63;5046612;28;20049;-50
2024/01/22 03:21:43;;;;;;;16.20;3.83;;;;;;;6.83;90.89;98527.97;5035779;28;20402;-48
2024/01/22 03:24:12;;;;;;;16.83;4.47;;;;;;;6.82;90.87;98540.13;5041980;28;20045;-49
2024/01/22 03:26:39;;;;;;;12.30;2.85;;;;;;;6.82;90.79;98540.13;5038878;28;20549;-48
2024/01/22 03:29:07;;;;;;;21.23;5.65;;;;;;;6.83;90.89;98538.97;5043116;28;20049;-50
2024/01/22 03:31:37;;;;;;;11.50;2.60;;;;;;;6.86;90.71;98554.72;5046729;28;20060;-46
2024/01/22 03:34:05;;;;;;;16.52;2.63;;;;;;;6.84;90.61;98560.59;5047017;28;20447;-48
2024/01/22 03:36:35;;;;;;;12.73;3.13;;;;;;;6.85;90.62;98558.63;5046710;28;20064;-47
2024/01/22 03:39:02;;;;;;;26.52;5.00;;;;;;;6.84;90.63;98576.28;5044707;28;20064;-49
2024/01/22 03:41:30;;;;;;;18.23;4.30;;;;;;;6.82;90.64;98575.88;5038291;28;20056;-48
2024/01/22 03:43:57;;;;;;;17.98;3.15;;;;;;;6.82;90.84;98595.13;5046232;28;20460;-50
2024/01/22 03:46:24;;;;;;;17.42;2.78;;;;;;;6.79;90.79;98591.16;5046056;28;20541;-47
2024/01/22 03:48:52;;;;;;;26.67;4.10;;;;;;;6.79;90.92;98617.88;5047042;28;20056;-48
2024/01/22 03:51:19;;;;;;;17.27;3.78;;;;;;;6.78;90.83;98624.53;5046553;28;20116;-47
2024/01/22 03:53:47;;;;;;;11.60;3.50;;;;;;;6.75;90.75;98626.09;5046988;28;20468;-49
2024/01/22 03:56:18;;;;;;;16.08;3.53;;;;;;;6.73;90.90;98637.44;5046069;28;20040;-50
2024/01/22 03:58:46;;;;;;;16.48;3.03;;;;;;;6.70;90.96;98649.16;5046533;28;20064;-51
2024/01/22 04:01:23;;;;;;;11.70;2.20;;;;;;;6.73;91.07;98658.63;5045724;28;20053;-48
2024/01/22 04:03:51;;;;;;;24.15;4.28;;;;;;;6.74;91.15;98654.72;5046054;28;20075;-50
2024/01/22 04:06:18;;;;;;;16.85;3.50;;;;;;;6.72;90.99;98663.34;5046230;28;20506;-47
2024/01/22 04:08:46;;;;;;;9.93;2.17;;;;;;;6.68;90.96;98673.50;5046319;28;20072;-49
2024/01/22 04:11:14;;;;;;;20.15;4.07;;;;;;;6.68;91.06;98684.50;5046974;28;20049;-48
2024/01/22 04:13:42;;;;;;;14.02;2.42;;;;;;;6.65;91.10;98679.72;5046706;28;20045;-48
2024/01/22 04:16:13;;;;;;;13.32;2.92;;;;;;;6.61;91.08;98700.91;5045201;28;20052;-47
2024/01/22 04:18:41;;;;;;;16.00;3.08;;;;;;;6.60;91.19;98696.53;5046766;28;20044;-49
2024/01/22 04:21:11;;;;;;;13.02;3.08;;;;;;;6.60;91.23;98704.78;5046368;28;20071;-50
2024/01/22 04:23:38;;;;;;;12.70;3.17;;;;;;;6.59;91.46;98714.19;5046127;28;20041;-48
2024/01/22 04:26:06;;;;;;;24.70;3.58;;;;;;;6.61;91.75;98714.66;5046246;28;20056;-51
2024/01/22 04:28:34;;;;;;;24.77;3.45;;;;;;;6.58;91.78;98723.63;5045855;28;20051;-49
2024/01/22 04:31:01;;;;;;;12.15;2.40;;;;;;;6.57;91.75;98727.53;5044957;28;20526;-49
2024/01/22 04:33:29;;;;;;;16.45;2.40;;;;;;;6.55;91.78;98713.34;5046469;28;20406;-46
2024/01/22 04:35:57;;;;;;;11.80;2.47;;;;;;;6.53;91.74;98715.69;5045577;28;20044;-51
2024/01/22 04:38:26;;;;;;;13.13;3.03;;;;;;;6.49;91.91;98725.81;5046035;28;20079;-50
2024/01/22 04:40:53;;;;;;;16.70;3.30;;;;;;;6.47;91.88;98722.66;5044669;28;20052;-50
2024/01/22 04:43:23;;;;;;;12.15;2.67;;;;;;;6.45;91.82;98733.22;5045494;28;20044;-50
2024/01/22 04:45:51;;;;;;;19.17;4.18;;;;;;;6.44;92.05;98739.88;5027451;28;20056;-48
2024/01/22 04:48:18;;;;;;;21.38;3.72;;;;;;;6.45;92.23;98741.47;5046302;28;20041;-50
2024/01/22 04:50:46;;;;;;;20.17;3.33;;;;;;;6.47;92.24;98741.88;5045888;28;20068;-46
2024/01/22 04:53:13;;;;;;;15.65;3.85;;;;;;;6.52;92.25;98746.28;5045766;28;20052;-50
2024/01/22 04:55:40;;;;;;;16.50;3.58;;;;;;;6.54;92.35;98738.47;5045040;28;20043;-48
2024/01/22 04:58:08;;;;;;;14.88;2.70;;;;;;;6.54;92.39;98738.47;5045249;28;20056;-51
2024/01/22 05:00:35;;;;;;;12.18;2.65;;;;;;;6.48;92.15;98746.22;5032326;28;20452;-48
2024/01/22 05:03:04;;;;;;;9.52;2.17;;;;;;;6.43;92.21;98743.78;5026729;28;20049;-49
2024/01/22 05:05:34;;;;;;;19.40;5.30;;;;;;;6.40;92.28;98768.47;5026250;28;20050;-52
2024/01/22 05:08:02;;;;;;;15.40;2.50;;;;;;;6.37;92.35;98756.25;5025713;28;20130;-51
2024/01/22 05:10:30;;;;;;;9.82;2.95;;;;;;;6.34;92.15;98769.91;5025806;28;20445;-51
2024/01/22 05:12:58;;;;;;;14.50;3.63;;;;;;;6.33;92.14;98771.84;5025641;28;20439;-51
2024/01/22 05:15:25;;;;;;;11.27;2.15;;;;;;;6.33;91.89;98785.59;5023584;28;20037;-47
2024/01/22 05:17:52;;;;;;;12.77;2.30;;;;;;;6.32;91.89;98781.28;5024180;28;20053;-46
2024/01/22 05:20:20;;;;;;;23.70;4.20;;;;;;;6.32;91.89;98781.28;5025835;28;20053;-46
2024/01/22 05:22:48;;;;;;;10.88;2.70;;;;;;;6.32;91.69;98777.72;5026207;28;20052;-47
2024/01/22 05:25:15;;;;;;;15.65;2.60;;;;;;;6.31;91.70;98787.13;5025200;28;20391;-50
2024/01/22 05:27:47;;;;;;;12.85;2.67;;;;;;;6.30;91.71;98800.06;5025160;28;20064;-46
2024/01/22 05:30:14;;;;;;;10.85;2.28;;;;;;;6.29;91.62;98797.69;5039370;28;20482;-49
2024/01/22 05:32:42;;;;;;;26.23;3.42;;;;;;;6.28;91.66;98805.13;5026539;28;20042;-48
2024/01/22 05:35:11;;;;;;;9.60;2.33;;;;;;;6.30;91.70;98815.78;5006962;28;20054;-48
2024/01/22 05:37:38;;;;;;;14.73;2.78;;;;;;;6.30;91.78;98821.28;5023343;28;20049;-49
2024/01/22 05:40:10;;;;;;;18.75;2.90;;;;;;;6.28;91.72;98824.38;5025887;28;20092;-51
2024/01/22 05:42:37;;;;;;;22.92;4.30;;;;;;;6.26;91.78;98831.38;5029550;28;20049;-48
2024/01/22 05:45:05;;;;;;;17.23;3.42;;;;;;;6.25;91.71;98836.09;5029800;28;20050;-52
2024/01/22 05:47:33;;;;;;;15.60;4.20;;;;;;;6.25;91.79;98836.09;5029937;28;20052;-53
2024/01/22 05:50:00;;;;;;;11.10;2.80;;;;;;;6.25;91.82;98840.81;5029822;28;20423;-51
2024/01/22 05:52:29;;;;;;;25.90;5.00;;;;;;;6.24;91.84;98840.00;5027638;28;20507;-46
2024/01/22 05:54:56;;;;;;;13.45;3.13;;;;;;;6.20;91.69;98841.88;5029061;28;20049;-53
2024/01/22 05:57:23;;;;;;;16.48;4.30;;;;;;;6.19;91.95;98856.00;5029294;28;20049;-48
2024/01/22 05:59:51;;;;;;;15.07;5.50;;;;;;;6.18;92.04;98866.19;5028296;28;20133;-49
2024/01/22 06:02:19;;;;;;;13.63;5.00;;;;;;;6.17;91.98;98869.28;5041973;28;20049;-51
2024/01/22 06:04:46;;;;;;;17.60;3.40;;;;;;;6.14;91.92;98863.34;5048872;28;20702;-48
2024/01/22 06:07:13;;;;;;;16.83;3.17;;;;;;;6.11;92.24;98868.78;5047900;28;20379;-49
2024/01/22 06:09:41;;;;;;;19.05;3.55;;;;;;;6.09;92.40;98887.56;5048510;28;20052;-49
2024/01/22 06:12:08;;;;;;;19.42;3.38;;;;;;;6.05;92.50;98897.69;5036395;28;20045;-49
2024/01/22 06:14:36;;;;;;;17.98;4.53;;;;;;;6.07;92.40;98912.66;5047640;28;20056;-49
2024/01/22 06:17:04;;;;;;;11.23;2.85;;;;;;;6.10;92.43;98911.94;5047943;28;20491;-47
2024/01/22 06:19:31;;;;;;;10.50;2.60;;;;;;;6.08;92.19;98907.97;5048907;28;20052;-49
2024/01/22 06:21:59;;;;;;;14.00;2.70;;;;;;;6.08;92.18;98918.94;5049217;28;20055;-46
2024/01/22 06:24:27;;;;;;;9.98;2.75;;;;;;;6.04;92.37;98918.88;5048856;28;20053;-47
2024/01/22 06:26:54;;;;;;;20.23;2.95;;;;;;;6.03;92.23;98927.47;5047480;28;20063;-50
2024/01/22 06:29:22;;;;;;;22.73;4.20;;;;;;;6.01;92.40;98925.06;5047912;28;20452;-48
2024/01/22 06:31:49;;;;;;;15.13;3.15;;;;;;;5.99;92.35;98943.06;5048552;28;20045;-47
2024/01/22 06:34:16;;;;;;;13.65;2.42;;;;;;;5.97;92.42;98945.38;5046307;28;20046;-46
2024/01/22 06:36:44;;;;;;;16.73;3.17;;;;;;;5.95;92.59;98953.19;5047956;28;20041;-51
2024/01/22 06:39:12;;;;;;;22.88;3.33;;;;;;;5.92;92.85;98962.16;5048056;28;20041;-48
2024/01/22 06:41:41;;;;;;;14.00;3.45;;;;;;;5.92;93.05;98959.41;5048036;28;20048;-47
2024/01/22 06:44:08;;;;;;;12.07;3.58;;;;;;;5.90;93.03;98958.97;5047862;28;20067;-46
2024/01/22 06:46:36;;;;;;;12.38;3.03;;;;;;;5.89;92.93;98940.88;5046419;28;20049;-50
2024/01/22 06:49:05;;;;;;;12.70;3.03;;;;;;;5.88;93.13;98953.00;5048269;28;20049;-50
2024/01/22 06:51:37;;;;;;;13.23;2.17;;;;;;;5.89;93.16;98949.13;5048389;28;20422;-46
2024/01/22 06:54:13;;;;;;;20.25;2.90;;;;;;;5.89;93.28;98955.41;5035712;28;20060;-51
2024/01/22 06:56:40;;;;;;;10.70;3.22;;;;;;;5.87;93.07;98955.00;5047100;28;20056;-46
2024/01/22 06:59:08;;;;;;;13.25;2.70;;;;;;;5.85;93.24;98959.25;5048068;28;20053;-50
2024/01/22 07:01:35;;;;;;;19.98;3.10;;;;;;;5.83;93.31;98967.78;5047975;28;20139;-47
2024/01/22 07:04:03;;;;;;;8.25;1.95;;;;;;;5.83;93.53;98977.97;5047362;28;20578;-49
2024/01/22 07:06:31;;;;;;;15.55;2.58;;;;;;;5.81;93.34;98983.03;5029921;28;20056;-49
2024/01/22 07:08:58;;;;;;;13.77;2.35;;;;;;;5.81;93.32;98985.78;5042905;28;20053;-48
2024/01/22 07:11:25;;;;;;;19.15;2.58;;;;;;;5.81;93.32;98985.78;5047501;28;20045;-47
2024/01/22 07:13:53;;;;;;;11.68;2.45;;;;;;;5.82;93.41;99001.13;5047750;28;20056;-46
2024/01/22 07:16:20;;;;;;;12.32;3.42;;;;;;;5.85;93.65;99014.94;5045676;28;20049;-47
2024/01/22 07:18:47;;;;;;;8.00;2.33;;;;;;;5.89;93.56;99015.84;5046952;28;20052;-49
2024/01/22 07:21:15;;;;;;;12.93;2.58;;;;;;;5.91;93.46;99010.78;5046623;28;20048;-47
2024/01/22 07:23:42;;;;;;;21.23;3.65;;;;;;;5.91;93.44;99029.19;5047520;28;20514;-48
2024/01/22 07:26:09;;;;;;;12.88;2.47;;;;;;;5.92;93.23;99044.53;5046141;28;20414;-49
2024/01/22 07:28:38;;;;;;;19.92;3.38;;;;;;;5.90;93.20;99033.91;5047374;28;20053;-47
2024/01/22 07:31:05;;;;;;;11.18;2.13;;;;;;;5.89;93.21;99053.47;5028332;28;20040;-49
2024/01/22 07:33:32;;;;;;;10.80;3.22;;;;;;;5.87;92.99;99053.84;5047020;28;20049;-46
2024/01/22 07:36:00;;;;;;;10.63;3.05;;;;;;;5.86;93.00;99073.41;5047145;28;20053;-49
2024/01/22 07:38:27;;;;;;;9.88;2.30;;;;;;;5.85;93.05;99061.63;5046747;28;20081;-48
2024/01/22 07:40:54;;;;;;;13.30;2.97;;;;;;;5.83;93.13;99072.16;5047380;28;20056;-47
2024/01/22 07:43:22;;;;;;;14.30;2.30;;;;;;;5.83;93.29;99061.16;5047395;28;20820;-48
2024/01/22 07:45:50;;;;;;;7.15;2.10;;;;;;;5.84;93.11;99092.16;5047647;28;20110;-51
2024/01/22 07:48:17;;;;;;;13.20;2.40;;;;;;;5.87;93.20;99094.25;5047285;28;20045;-48
2024/01/22 07:50:45;;;;;;;12.32;2.97;;;;;;;5.86;92.90;99095.38;5046803;28;20037;-50
2024/01/22 07:53:12;;;;;;;7.82;2.67;;;;;;;5.85;93.14;99097.31;5042750;28;20056;-51
2024/01/22 07:55:40;;;;;;;18.13;3.03;;;;;;;5.83;93.26;99101.53;5037144;28;20511;-47
2024/01/22 07:58:07;;;;;;;22.73;5.60;;;;;;;5.84;92.86;99112.19;5045676;28;20052;-46
2024/01/22 08:00:35;;;;;;;12.52;4.03;;;;;;;5.85;92.89;99122.03;5046579;28;20056;-48
2024/01/22 08:03:02;;;;;;;12.52;2.42;;;;;;;5.85;92.61;99130.28;5046154;28;20048;-49
2024/01/22 08:05:30;;;;;;;17.05;2.72;;;;;;;5.86;92.45;99120.09;5027296;28;20127;-50
2024/01/22 08:07:57;;;;;;;8.70;4.90;;;;;;;5.84;92.28;99145.16;5046734;28;20049;-52
2024/01/22 08:10:25;;;;;;;18.33;3.92;;;;;;;5.80;92.38;99149.75;5046571;28;20053;-51
2024/01/22 08:12:52;;;;;;;15.70;2.95;;;;;;;5.80;92.32;99154.47;5041004;28;20037;-53
2024/01/22 08:15:20;;;;;;;12.65;2.30;;;;;;;5.77;91.98;99166.13;5045803;28;20045;-46
2024/01/22 08:17:47;;;;;;;12.38;2.22;;;;;;;5.77;92.41;99166.13;5045861;28;20049;-49
2024/01/22 08:20:17;;;;;;;12.25;2.72;;;;;;;5.76;92.45;99153.53;5044319;28;20045;-50
2024/01/22 08:22:46;;;;;;;14.07;2.08;;;;;;;5.74;92.46;99162.16;5045728;28;20052;-52
2024/01/22 08:25:19;;;;;;;13.32;2.30;;;;;;;5.73;92.31;99170.72;5043803;28;20053;-52
2024/01/22 08:27:46;;;;;;;7.78;2.05;;;;;;;5.72;92.17;99177.38;5046380;28;20511;-48
2024/01/22 08:30:14;;;;;;;8.27;1.92;;;;;;;5.73;92.34;99181.69;5046526;28;20053;-53
2024/01/22 08:32:41;;;;;;;10.35;2.63;;;;;;;5.72;92.14;99191.09;5046345;28;20060;-48
2024/01/22 08:35:09;;;;;;;14.25;2.17;;;;;;;5.69;92.19;99214.56;5044615;28;20051;-47
2024/01/22 08:37:39;;;;;;;6.22;1.63;;;;;;;5.68;92.38;99210.22;5045564;28;20052;-47
2024/01/22 08:40:08;;;;;;;19.00;4.65;;;;;;;5.66;92.24;99217.22;5046435;28;20045;-46
2024/01/22 08:42:36;;;;;;;7.95;2.80;;;;;;;5.64;92.28;99222.25;5046389;28;20056;-51
2024/01/22 08:45:04;;;;;;;9.35;2.85;;;;;;;5.63;92.22;99231.63;5045442;28;20044;-51
2024/01/22 08:47:31;;;;;;;9.93;2.83;;;;;;;5.61;92.49;99229.25;5046440;28;20041;-48
2024/01/22 08:49:58;;;;;;;15.45;2.97;;;;;;;5.59;92.47;99225.25;5029022;28;20083;-46
2024/01/22 08:52:26;;;;;;;11.32;2.92;;;;;;;5.58;92.35;99248.34;5043610;28;20045;-53
2024/01/22 08:54:54;;;;;;;9.27;2.08;;;;;;;5.56;92.35;99248.69;5036405;28;20057;-51
2024/01/22 08:57:21;;;;;;;12.52;2.95;;;;;;;5.56;92.62;99247.91;5045798;28;20064;-47
2024/01/22 08:59:48;;;;;;;10.27;2.13;;;;;;;5.53;92.38;99249.41;5045874;28;20518;-48
2024/01/22 09:02:16;;;;;;;16.00;3.33;;;;;;;5.54;92.61;99272.94;5034893;28;20057;-49
2024/01/22 09:04:43;;;;;;;6.40;2.08;;;;;;;5.55;92.97;99280.03;5046206;28;20045;-48
2024/01/22 09:07:10;;;;;;;14.52;2.95;;;;;;;5.58;92.73;99278.56;5031491;28;20041;-51
2024/01/22 09:09:38;;;;;;;11.80;2.33;;;;;;;5.60;92.66;99284.47;5045735;28;20053;-48
2024/01/22 09:12:05;;;;;;;7.65;2.70;;;;;;;5.61;92.72;99284.16;5045833;28;20514;-46
2024/01/22 09:14:33;;;;;;;12.43;3.15;;;;;;;5.61;92.58;99305.31;5045534;28;20060;-51
2024/01/22 09:17:00;;;;;;;9.43;2.17;;;;;;;5.61;92.76;99306.13;5022071;28;20053;-47
2024/01/22 09:19:28;;;;;;;16.00;4.07;;;;;;;5.66;93.02;99299.56;5040602;28;20056;-46
2024/01/22 09:21:57;;;;;;;16.77;3.78;;;;;;;5.72;92.87;99312.69;5046429;28;20049;-47
2024/01/22 09:24:24;;;;;;;11.05;2.33;;;;;;;5.73;92.95;99319.81;5045789;28;20495;-48
2024/01/22 09:26:51;;;;;;;17.48;2.70;;;;;;;5.75;93.09;99316.69;5045996;28;20049;-52
2024/01/22 09:29:19;;;;;;;12.65;2.10;;;;;;;5.76;92.92;99334.78;5045734;28;20707;-49
2024/01/22 09:31:46;;;;;;;13.00;2.60;;;;;;;5.78;93.00;99346.22;5044663;28;20041;-50
2024/01/22 09:34:14;;;;;;;18.23;3.20;;;;;;;5.83;93.14;99340.47;5043597;28;20379;-49
2024/01/22 09:36:41;;;;;;;6.70;2.22;;;;;;;5.91;93.12;99342.31;5038291;28;20398;-47
2024/01/22 09:39:09;;;;;;;24.58;4.82;;;;;;;5.93;93.12;99346.31;5045517;28;20053;-48
2024/01/22 09:41:37;;;;;;;8.63;2.83;;;;;;;5.93;93.12;99353.78;5045882;28;20049;-50
2024/01/22 09:44:06;;;;;;;13.52;2.42;;;;;;;5.92;93.08;99343.91;5044607;28;20060;-48
2024/01/22 09:46:35;;;;;;;9.23;2.30;;;;;;;5.91;93.14;99362.34;5046293;28;20072;-50
2024/01/22 09:49:04;;;;;;;17.52;3.65;;;;;;;5.88;93.49;99359.47;5045458;28;20715;-54
2024/01/22 09:51:34;;;;;;;8.77;2.28;;;;;;;5.88;93.47;99360.28;5044568;28;20427;-50
2024/01/22 09:54:09;;;;;;;21.42;2.88;;;;;;;5.87;93.58;99374.38;5045382;28;20055;-49
2024/01/22 09:56:37;;;;;;;12.32;4.18;;;;;;;5.89;93.60;99369.31;5045715;28;20052;-51
2024/01/22 09:59:18;;;;;;;12.07;2.85;;;;;;;5.91;93.76;99364.28;5045773;28;20053;-50
2024/01/22 10:01:48;;;;;;;15.93;3.40;;;;;;;5.94;93.51;99391.06;5045367;28;20053;-45
2024/01/22 10:04:17;;;;;;;13.25;2.33;;;;;;;5.94;93.51;99393.81;5045986;28;20045;-47
2024/01/22 10:06:45;;;;;;;12.82;2.63;;;;;;;5.97;93.49;99390.38;5045708;28;20056;-48
2024/01/22 10:09:15;;;;;;;15.88;3.08;;;;;;;5.97;93.50;99373.88;5045677;28;20041;-51
2024/01/22 10:11:44;;;;;;;13.10;3.20;;;;;;;6.00;93.28;99400.66;5045250;28;20052;-52
2024/01/22 10:14:12;;;;;;;16.27;2.92;;;;;;;6.01;93.38;99407.78;5045418;28;20053;-47
2024/01/22 10:16:39;;;;;;;11.13;2.78;;;;;;;6.04;93.40;99401.56;5045009;28;20037;-48
2024/01/22 10:19:08;;;;;;;19.02;3.30;;;;;;;6.05;93.42;99423.22;5042809;28;20049;-45
2024/01/22 10:21:37;;;;;;;10.93;2.58;;;;;;;6.11;93.59;99413.59;5032320;28;20041;-51
2024/01/22 10:24:07;;;;;;;14.38;2.70;;;;;;;6.23;93.41;99411.91;5045432;28;20125;-48
2024/01/22 10:26:35;;;;;;;13.05;3.55;;;;;;;6.33;93.37;99420.47;5045602;28;20056;-48
2024/01/22 10:29:16;;;;;;;13.18;3.40;;;;;;;6.41;92.88;99422.28;5047126;28;20057;-49
2024/01/22 10:31:54;;;;;;;15.00;4.05;;;;;;;6.44;93.32;99432.56;5049131;28;20052;-48
2024/01/22 10:34:29;;;;;;;17.38;3.55;;;;;;;6.45;93.18;99425.94;5048556;28;20057;-49
2024/01/22 10:37:22;;;;;;;14.68;3.33;;;;;;;6.51;93.34;99424.53;5049106;28;20059;-49
2024/01/22 10:40:09;;;;;;;11.13;1.98;;;;;;;6.51;93.02;99427.28;5047197;28;20052;-49
2024/01/22 10:42:37;;;;;;;12.25;3.72;;;;;;;6.51;92.96;99445.75;5046378;28;20072;-48
2024/01/22 10:45:08;;;;;;;9.90;4.28;;;;;;;6.50;92.84;99442.19;5041061;28;20045;-52
2024/01/22 10:47:36;;;;;;;20.10;3.17;;;;;;;6.49;92.86;99448.81;5048265;28;20041;-51
2024/01/22 10:50:05;;;;;;;11.63;2.67;;;;;;;6.44;92.93;99449.06;5048366;28;20522;-48
2024/01/22 10:52:36;;;;;;;19.42;2.70;;;;;;;6.43;93.00;99474.97;5031170;28;20052;-53
2024/01/22 10:55:04;;;;;;;16.02;2.10;;;;;;;6.40;92.90;99448.19;5047780;28;20052;-46
2024/01/22 10:57:37;;;;;;;9.13;1.92;;;;;;;6.40;92.78;99467.44;5048686;28;20044;-48
2024/01/22 11:00:09;;;;;;;8.50;2.50;;;;;;;6.43;92.99;99464.00;5041990;28;20049;-52
2024/01/22 11:02:42;;;;;;;10.35;2.40;;;;;;;6.44;92.60;99482.06;5047806;28;20049;-53
2024/01/22 11:05:15;;;;;;;9.18;2.05;;;;;;;6.48;92.67;99482.19;5047885;28;20041;-49
2024/01/22 11:07:49;;;;;;;12.65;4.18;;;;;;;6.49;92.30;99494.75;5020887;28;20053;-45
2024/01/22 11:10:17;;;;;;;13.98;2.53;;;;;;;6.53;92.25;99474.47;5044516;28;20048;-50
2024/01/22 11:12:49;;;;;;;7.22;2.28;;;;;;;6.58;92.08;99479.72;5028061;28;20651;-50
2024/01/22 11:15:16;;;;;;;12.70;3.67;;;;;;;6.63;91.61;99479.47;5048447;28;20052;-48
2024/01/22 11:17:44;;;;;;;14.85;1.90;;;;;;;6.67;91.56;99480.38;5034469;28;20053;-47
2024/01/22 11:20:15;;;;;;;9.95;2.05;;;;;;;6.71;91.60;99486.78;5048023;28;20049;-46
2024/01/22 11:23:08;;;;;;;7.13;2.03;;;;;;;6.74;91.44;99491.59;5048279;28;20519;-46
2024/01/22 11:25:36;;;;;;;11.80;3.35;;;;;;;6.79;91.39;99497.97;5030367;28;20414;-48
2024/01/22 11:28:07;;;;;;;11.55;1.77;;;;;;;6.83;91.31;99512.66;5034452;28;20045;-47
2024/01/22 11:30:38;;;;;;;13.60;3.70;;;;;;;6.88;91.03;99512.41;5047766;28;20506;-49
2024/01/22 11:33:32;;;;;;;28.83;4.25;;;;;;;6.92;90.65;99518.78;5048022;28;20045;-52
2024/01/22 11:35:59;;;;;;;7.35;1.90;;;;;;;6.93;90.67;99525.91;5045370;28;20407;-46
2024/01/22 11:38:42;;;;;;;9.48;1.83;;;;;;;6.95;90.76;99523.59;5045234;28;20048;-50
2024/01/22 11:41:09;;;;;;;13.75;3.15;;;;;;;6.99;90.81;99530.00;5034713;28;20056;-48